Time;durP1;ratioP1;P1;durP2;ratioP2;P2;SDS_P1;SDS_P2;PMS_P1;PMS_P2;Temp;Humidity;BMP_temperature;BMP_pressure;BME280_temperature;BME280_humidity;BME280_pressure;Samples;Min_cycle;Max_cycle;Signal;HPM_P1;HPM_P2
2022/03/03 00:00:04;;;;;;;33.90;25.05;;;25.90;99.90;;;;;;5075041;28;20388;-60
2022/03/03 00:02:31;;;;;;;36.78;27.10;;;26.00;99.90;;;;;;5055712;28;20048;-60
2022/03/03 00:04:57;;;;;;;35.67;27.55;;;26.00;99.90;;;;;;5059733;28;20388;-60
2022/03/03 00:07:25;;;;;;;113.20;83.30;;;26.00;99.90;;;;;;5075313;28;20029;-59
2022/03/03 00:09:52;;;;;;;132.50;86.35;;;26.00;99.90;;;;;;5075233;28;20118;-60
2022/03/03 00:12:19;;;;;;;197.13;131.88;;;26.00;99.90;;;;;;5074915;28;20044;-60
2022/03/03 00:14:45;;;;;;;49.15;34.88;;;26.00;99.90;;;;;;5074965;28;20029;-60
2022/03/03 00:17:12;;;;;;;127.95;81.15;;;26.10;99.90;;;;;;5074982;28;20024;-60
2022/03/03 00:19:40;;;;;;;135.93;90.53;;;26.00;99.90;;;;;;5074988;28;20066;-60
2022/03/03 00:22:07;;;;;;;56.58;36.28;;;26.00;99.90;;;;;;5074469;28;20035;-61
2022/03/03 00:24:34;;;;;;;90.95;62.88;;;26.00;99.90;;;;;;5074694;28;20033;-59
2022/03/03 00:27:01;;;;;;;170.85;144.73;;;26.00;99.90;;;;;;5074451;28;20028;-60
2022/03/03 00:29:27;;;;;;;66.07;50.60;;;25.90;99.90;;;;;;5074842;28;20415;-60
2022/03/03 00:31:54;;;;;;;145.25;118.55;;;25.90;99.90;;;;;;5074183;28;20085;-59
2022/03/03 00:34:21;;;;;;;93.43;71.85;;;25.90;99.90;;;;;;5074748;28;20031;-59
2022/03/03 00:36:48;;;;;;;57.42;37.08;;;25.90;99.90;;;;;;5074672;28;20377;-59
2022/03/03 00:39:15;;;;;;;123.90;31.98;;;25.90;99.90;;;;;;5074843;28;20024;-60
2022/03/03 00:41:41;;;;;;;55.10;20.08;;;25.90;99.90;;;;;;5074349;28;20040;-60
2022/03/03 00:44:09;;;;;;;38.42;26.05;;;25.90;99.90;;;;;;5074493;28;20025;-60
2022/03/03 00:46:37;;;;;;;32.08;20.13;;;25.90;99.90;;;;;;5074731;28;20044;-59
2022/03/03 00:49:05;;;;;;;35.60;23.58;;;25.90;99.90;;;;;;5074385;28;20051;-59
2022/03/03 00:51:32;;;;;;;45.40;32.63;;;25.90;99.90;;;;;;5073769;28;20037;-60
2022/03/03 00:53:59;;;;;;;679.72;529.13;;;26.00;99.90;;;;;;5074454;28;20052;-59
2022/03/03 00:56:26;;;;;;;700.97;473.95;;;26.10;99.90;;;;;;5074268;28;20432;-59
2022/03/03 00:58:52;;;;;;;1244.07;758.80;;;26.10;99.90;;;;;;5074258;28;20028;-59
2022/03/03 01:01:19;;;;;;;320.73;207.90;;;26.10;99.90;;;;;;5073864;28;20133;-60
2022/03/03 01:03:46;;;;;;;60.40;37.67;;;26.10;99.90;;;;;;5074190;28;20029;-60
2022/03/03 01:06:13;;;;;;;22.67;15.02;;;26.10;99.90;;;;;;5074106;28;20103;-60
2022/03/03 01:08:40;;;;;;;29.10;16.75;;;26.10;99.90;;;;;;5074435;28;20107;-59
2022/03/03 01:11:08;;;;;;;25.30;14.70;;;26.00;99.90;;;;;;5074444;28;20060;-60
2022/03/03 01:13:34;;;;;;;466.85;291.42;;;26.00;99.90;;;;;;5073965;28;20481;-60
2022/03/03 01:16:02;;;;;;;104.25;54.15;;;26.10;99.90;;;;;;5073950;28;20064;-61
2022/03/03 01:18:28;;;;;;;73.28;41.03;;;26.10;99.90;;;;;;5074035;28;20036;-59
2022/03/03 01:20:55;;;;;;;47.38;29.80;;;26.20;99.90;;;;;;5073764;28;20108;-60
2022/03/03 01:23:22;;;;;;;74.90;45.15;;;26.20;99.90;;;;;;5073787;28;20021;-61
2022/03/03 01:25:49;;;;;;;46.67;24.40;;;26.30;99.90;;;;;;5073947;28;20028;-61
2022/03/03 01:28:16;;;;;;;61.28;30.95;;;26.40;99.90;;;;;;5073551;28;20021;-61
2022/03/03 01:30:42;;;;;;;142.90;91.22;;;26.40;99.90;;;;;;5073716;28;20035;-61
2022/03/03 01:33:09;;;;;;;28.27;14.85;;;26.50;99.90;;;;;;5073225;28;20370;-61
2022/03/03 01:35:36;;;;;;;25.80;14.98;;;26.50;99.90;;;;;;5073467;28;20350;-61
2022/03/03 01:38:03;;;;;;;27.45;15.77;;;26.50;99.90;;;;;;5073630;28;20037;-61
2022/03/03 01:40:30;;;;;;;28.42;13.85;;;26.50;99.90;;;;;;5073590;28;20489;-60
2022/03/03 01:42:56;;;;;;;32.63;16.13;;;26.50;99.90;;;;;;5073558;28;20032;-60
2022/03/03 01:45:23;;;;;;;34.70;19.35;;;26.50;99.90;;;;;;5073556;28;20032;-60
2022/03/03 01:47:50;;;;;;;33.45;19.67;;;26.50;99.90;;;;;;5073633;28;20035;-62
2022/03/03 01:50:16;;;;;;;46.97;32.90;;;26.60;99.90;;;;;;5073652;28;20036;-62
2022/03/03 01:52:43;;;;;;;43.25;30.00;;;26.60;99.90;;;;;;5073494;28;20051;-58
2022/03/03 01:55:11;;;;;;;22.27;13.70;;;26.70;99.90;;;;;;5073244;28;20033;-60
2022/03/03 01:57:38;;;;;;;95.47;65.65;;;26.80;99.90;;;;;;5073282;28;20023;-60
2022/03/03 02:00:07;;;;;;;28.58;16.63;;;26.70;99.90;;;;;;5073214;28;20063;-60
2022/03/03 02:02:34;;;;;;;31.77;21.23;;;26.80;99.90;;;;;;5073694;28;20178;-63
2022/03/03 02:05:01;;;;;;;29.67;19.77;;;26.80;99.90;;;;;;5073021;28;20040;-60
2022/03/03 02:07:28;;;;;;;24.60;14.57;;;26.90;99.90;;;;;;5073253;28;20033;-61
2022/03/03 02:09:54;;;;;;;21.83;13.32;;;26.90;99.90;;;;;;5073243;28;20024;-60
2022/03/03 02:12:21;;;;;;;19.83;12.98;;;26.90;99.90;;;;;;5071811;28;20119;-60
2022/03/03 02:14:49;;;;;;;17.98;12.60;;;27.00;99.90;;;;;;5072925;28;20142;-60
2022/03/03 02:17:16;;;;;;;19.13;12.35;;;27.00;99.90;;;;;;5073068;28;20028;-61
2022/03/03 02:19:43;;;;;;;19.88;11.45;;;27.00;99.90;;;;;;5072864;28;20031;-63
2022/03/03 02:22:10;;;;;;;20.35;13.32;;;27.00;99.90;;;;;;5072734;28;20024;-60
2022/03/03 02:24:38;;;;;;;22.58;14.00;;;27.00;99.90;;;;;;5064841;28;20619;-60
2022/03/03 02:27:06;;;;;;;21.15;12.20;;;27.10;99.90;;;;;;5066261;28;20031;-60
2022/03/03 02:29:33;;;;;;;22.33;11.95;;;27.10;99.90;;;;;;5070998;28;20029;-61
2022/03/03 02:32:01;;;;;;;32.40;21.80;;;27.10;99.90;;;;;;5072720;28;20032;-60
2022/03/03 02:34:28;;;;;;;31.90;21.77;;;27.10;99.90;;;;;;5071040;28;20105;-59
2022/03/03 02:36:54;;;;;;;20.38;12.85;;;27.20;99.90;;;;;;5072233;28;20044;-60
2022/03/03 02:39:21;;;;;;;27.05;12.15;;;27.30;99.90;;;;;;5072968;28;20039;-61
2022/03/03 02:41:48;;;;;;;19.73;12.00;;;27.40;99.90;;;;;;5071915;28;20063;-60
2022/03/03 02:44:14;;;;;;;17.92;11.70;;;27.30;99.90;;;;;;5071914;28;20032;-61
2022/03/03 02:46:41;;;;;;;27.85;11.00;;;27.30;99.90;;;;;;5073246;28;20028;-60
2022/03/03 02:49:09;;;;;;;20.50;10.77;;;27.30;99.90;;;;;;5076375;28;20115;-61
2022/03/03 02:51:36;;;;;;;18.63;10.88;;;27.40;99.90;;;;;;5075806;28;20037;-61
2022/03/03 02:54:04;;;;;;;17.77;9.88;;;27.40;99.90;;;;;;5076261;28;20027;-60
2022/03/03 02:56:31;;;;;;;19.50;11.40;;;27.50;99.90;;;;;;5075638;28;20285;-60
2022/03/03 02:58:57;;;;;;;18.20;10.95;;;27.50;99.90;;;;;;5073451;28;20037;-60
2022/03/03 03:01:24;;;;;;;15.77;9.55;;;27.50;99.90;;;;;;5076114;28;20377;-59
2022/03/03 03:03:51;;;;;;;15.98;9.02;;;27.50;99.90;;;;;;5074469;28;20459;-60
2022/03/03 03:06:18;;;;;;;13.35;8.63;;;27.60;99.90;;;;;;5071743;28;20060;-61
2022/03/03 03:08:44;;;;;;;12.75;8.70;;;27.70;99.90;;;;;;5075074;28;20032;-60
2022/03/03 03:11:11;;;;;;;13.07;8.88;;;27.70;99.90;;;;;;5076123;28;20435;-61
2022/03/03 03:13:38;;;;;;;14.63;8.80;;;27.80;99.90;;;;;;5076083;28;20028;-61
2022/03/03 03:16:06;;;;;;;15.20;9.15;;;27.80;99.90;;;;;;5077794;28;20032;-60
2022/03/03 03:18:33;;;;;;;17.23;9.25;;;27.80;99.90;;;;;;5075191;28;20060;-62
2022/03/03 03:21:00;;;;;;;17.95;10.35;;;27.80;99.90;;;;;;5074616;28;20020;-63
2022/03/03 03:23:27;;;;;;;18.63;11.98;;;27.80;99.90;;;;;;5075593;28;20040;-61
2022/03/03 03:25:55;;;;;;;22.13;9.25;;;27.90;99.90;;;;;;5073185;28;20024;-61
2022/03/03 03:28:21;;;;;;;14.98;9.52;;;27.90;99.90;;;;;;5075503;28;20380;-61
2022/03/03 03:30:49;;;;;;;26.95;11.30;;;28.00;99.90;;;;;;5073705;28;20031;-61
2022/03/03 03:33:16;;;;;;;22.33;11.00;;;28.00;99.90;;;;;;5070747;28;20020;-61
2022/03/03 03:35:43;;;;;;;18.77;11.35;;;28.00;99.90;;;;;;5069470;28;20470;-61
2022/03/03 03:38:09;;;;;;;15.45;10.88;;;28.10;99.90;;;;;;5073522;28;20025;-61
2022/03/03 03:40:36;;;;;;;14.93;11.50;;;28.10;99.90;;;;;;5073607;28;20035;-61
2022/03/03 03:43:03;;;;;;;21.08;11.63;;;28.20;99.90;;;;;;5073031;28;20016;-61
2022/03/03 03:45:31;;;;;;;20.33;12.30;;;28.30;99.90;;;;;;5071035;28;20107;-61
2022/03/03 03:47:59;;;;;;;20.08;12.90;;;28.30;99.90;;;;;;5073397;28;20024;-60
2022/03/03 03:50:28;;;;;;;39.78;22.08;;;28.50;99.90;;;;;;5074213;28;20024;-59
2022/03/03 03:52:54;;;;;;;18.02;13.35;;;28.60;99.90;;;;;;5075507;28;20112;-60
2022/03/03 03:55:21;;;;;;;18.63;13.82;;;28.70;99.90;;;;;;5075675;28;20063;-60
2022/03/03 03:57:48;;;;;;;22.38;13.10;;;28.80;99.90;;;;;;5074187;28;20012;-61
2022/03/03 04:00:15;;;;;;;22.63;12.63;;;28.90;99.90;;;;;;5074769;28;20028;-61
2022/03/03 04:02:43;;;;;;;20.60;14.15;;;29.00;99.90;;;;;;5072005;28;20036;-61
2022/03/03 04:05:10;;;;;;;21.83;12.95;;;29.10;99.90;;;;;;5074501;28;20056;-63
2022/03/03 04:07:37;;;;;;;21.80;14.20;;;29.10;99.90;;;;;;5071829;28;20021;-61
2022/03/03 04:10:04;;;;;;;24.35;15.95;;;29.10;99.90;;;;;;5075206;28;20028;-60
2022/03/03 04:12:31;;;;;;;22.13;14.70;;;29.10;99.90;;;;;;5069063;28;20037;-63
2022/03/03 04:14:58;;;;;;;20.58;13.57;;;29.10;99.90;;;;;;5075289;28;20043;-63
2022/03/03 04:17:31;;;;;;;35.40;15.57;;;29.10;99.90;;;;;;5068656;28;20029;-60
2022/03/03 04:19:58;;;;;;;25.08;15.02;;;29.10;99.90;;;;;;5070891;28;20021;-61
2022/03/03 04:22:25;;;;;;;24.38;16.05;;;29.10;99.90;;;;;;5073860;28;20047;-61
2022/03/03 04:24:51;;;;;;;26.98;16.88;;;29.10;99.90;;;;;;5073604;28;20025;-61
2022/03/03 04:27:18;;;;;;;28.05;16.90;;;29.10;99.90;;;;;;5073632;28;20426;-62
2022/03/03 04:29:45;;;;;;;32.85;17.13;;;29.10;99.90;;;;;;5073479;28;20032;-60
2022/03/03 04:32:12;;;;;;;36.33;18.65;;;29.20;99.90;;;;;;5075163;28;20111;-61
2022/03/03 04:34:39;;;;;;;24.52;13.43;;;29.20;99.90;;;;;;5071310;28;20425;-60
2022/03/03 04:37:06;;;;;;;23.08;13.02;;;29.30;99.90;;;;;;5072901;28;20028;-61
2022/03/03 04:39:33;;;;;;;19.45;13.20;;;29.40;99.90;;;;;;5073123;28;20471;-61
2022/03/03 04:41:59;;;;;;;32.70;14.05;;;29.40;99.90;;;;;;5073336;28;20024;-61
2022/03/03 04:44:26;;;;;;;15.40;12.13;;;29.40;99.90;;;;;;5074325;28;20445;-61
2022/03/03 04:46:53;;;;;;;20.73;12.85;;;29.40;99.90;;;;;;5073567;28;20138;-61
2022/03/03 04:49:20;;;;;;;25.17;14.27;;;29.40;99.90;;;;;;5072566;28;20559;-61
2022/03/03 04:51:47;;;;;;;31.52;11.98;;;29.40;99.90;;;;;;5072000;28;20029;-61
2022/03/03 04:54:14;;;;;;;18.40;11.68;;;29.40;99.90;;;;;;5072768;28;20036;-60
2022/03/03 04:56:41;;;;;;;18.33;10.70;;;29.40;99.90;;;;;;5071364;28;20017;-63
2022/03/03 04:59:07;;;;;;;14.57;9.80;;;29.50;99.90;;;;;;5073178;28;20529;-64
2022/03/03 05:01:34;;;;;;;18.38;10.93;;;29.60;99.90;;;;;;5073905;28;20063;-60
2022/03/03 05:04:01;;;;;;;18.13;10.70;;;29.70;99.90;;;;;;5073202;28;20446;-59
2022/03/03 05:06:27;;;;;;;20.75;12.00;;;29.90;99.90;;;;;;5073475;28;20116;-60
2022/03/03 05:08:54;;;;;;;18.67;12.13;;;30.00;99.90;;;;;;5070764;28;20029;-59
2022/03/03 05:11:21;;;;;;;18.88;11.98;;;30.10;99.90;;;;;;5073410;28;20120;-59
2022/03/03 05:13:48;;;;;;;20.33;12.48;;;30.20;99.90;;;;;;5067545;28;20047;-62
2022/03/03 05:16:15;;;;;;;26.45;13.20;;;30.30;99.90;;;;;;5070950;28;20052;-60
2022/03/03 05:18:42;;;;;;;35.13;20.20;;;30.30;99.90;;;;;;5072752;28;20131;-60
2022/03/03 05:21:09;;;;;;;35.65;16.02;;;30.30;99.90;;;;;;5070406;28;20107;-60
2022/03/03 05:23:36;;;;;;;19.20;13.10;;;30.30;99.90;;;;;;5072403;28;20055;-59
2022/03/03 05:26:02;;;;;;;16.48;11.38;;;30.30;99.90;;;;;;5070561;28;20032;-60
2022/03/03 05:28:29;;;;;;;26.05;16.02;;;30.40;99.90;;;;;;5062893;28;20477;-59
2022/03/03 05:30:56;;;;;;;21.27;14.30;;;30.50;99.90;;;;;;5072236;28;20437;-60
2022/03/03 05:33:23;;;;;;;31.88;23.45;;;30.50;99.90;;;;;;5073666;28;20026;-60
2022/03/03 05:36:03;;;;;;;48.17;34.38;;;30.60;99.90;;;;;;5077434;28;20091;-62
2022/03/03 05:38:32;;;;;;;35.35;24.83;;;30.60;99.90;;;;;;5073346;28;20037;-60
2022/03/03 05:40:59;;;;;;;21.13;13.20;;;30.60;99.90;;;;;;5080489;28;20024;-61
2022/03/03 05:43:27;;;;;;;18.35;11.65;;;30.60;99.90;;;;;;5073528;28;20099;-61
2022/03/03 05:45:55;;;;;;;21.58;11.00;;;30.70;99.90;;;;;;5072831;28;20413;-59
2022/03/03 05:48:23;;;;;;;14.23;10.05;;;30.70;99.90;;;;;;5072633;28;20040;-60
2022/03/03 05:50:50;;;;;;;19.70;11.77;;;30.70;99.90;;;;;;5072659;28;20111;-62
2022/03/03 05:53:17;;;;;;;16.42;10.52;;;30.80;99.90;;;;;;5072047;28;20464;-61
2022/03/03 05:55:47;;;;;;;17.20;9.70;;;30.80;99.90;;;;;;5068237;28;20023;-61
2022/03/03 05:58:19;;;;;;;21.60;13.18;;;30.80;99.90;;;;;;5070440;28;20349;-62
2022/03/03 06:00:48;;;;;;;14.93;9.88;;;30.80;99.90;;;;;;5065098;28;20443;-59
2022/03/03 06:03:18;;;;;;;23.00;12.00;;;30.70;99.90;;;;;;5055272;28;20024;-62
2022/03/03 06:05:53;;;;;;;33.88;15.30;;;30.70;99.90;;;;;;5063699;28;20075;-62
2022/03/03 06:08:41;;;;;;;31.02;15.35;;;30.40;99.90;;;;;;5056013;28;20032;-61
2022/03/03 06:11:32;;;;;;;43.47;17.63;;;29.80;99.90;;;;;;5060574;28;20029;-61
2022/03/03 06:14:38;;;;;;;38.50;17.35;;;29.40;99.90;;;;;;5066992;28;20104;-62
2022/03/03 06:17:05;;;;;;;19.98;13.35;;;29.10;99.90;;;;;;5072983;28;20075;-62
2022/03/03 06:19:39;;;;;;;17.48;12.60;;;29.10;99.90;;;;;;5073566;28;20372;-60
2022/03/03 06:22:08;;;;;;;19.63;12.13;;;29.20;99.90;;;;;;5077329;28;20470;-62
2022/03/03 06:24:35;;;;;;;19.20;13.65;;;29.20;99.90;;;;;;5077743;28;20043;-61
2022/03/03 06:27:01;;;;;;;22.25;16.88;;;29.20;99.90;;;;;;5076330;28;20504;-61
2022/03/03 06:29:28;;;;;;;19.13;13.48;;;29.20;99.90;;;;;;5075147;28;20060;-61
2022/03/03 06:31:55;;;;;;;23.10;14.05;;;29.20;99.90;;;;;;5076702;28;20393;-62
2022/03/03 06:34:23;;;;;;;22.80;14.30;;;29.30;99.90;;;;;;5076111;28;20028;-59
2022/03/03 06:36:53;;;;;;;19.15;14.70;;;29.30;99.90;;;;;;5076040;28;20098;-59
2022/03/03 06:39:20;;;;;;;31.58;15.70;;;29.40;99.90;;;;;;5076265;28;20043;-59
2022/03/03 06:41:47;;;;;;;20.38;14.23;;;29.40;99.90;;;;;;5076134;28;20028;-59
2022/03/03 06:44:14;;;;;;;22.08;14.98;;;29.40;99.90;;;;;;5074916;28;20070;-57
2022/03/03 06:46:42;;;;;;;27.92;15.68;;;29.50;99.90;;;;;;5074505;28;20037;-59
2022/03/03 06:49:08;;;;;;;33.30;20.50;;;29.60;99.90;;;;;;5076034;28;20025;-59
2022/03/03 06:51:47;;;;;;;31.35;20.10;;;29.70;99.90;;;;;;5073260;28;20449;-60
2022/03/03 06:54:16;;;;;;;51.10;28.15;;;29.70;99.90;;;;;;5073796;28;20020;-61
2022/03/03 06:56:48;;;;;;;47.92;30.55;;;29.70;99.90;;;;;;5075595;28;20032;-60
2022/03/03 06:59:18;;;;;;;40.85;24.17;;;29.70;99.90;;;;;;5071531;28;20099;-61
2022/03/03 07:01:48;;;;;;;32.13;18.55;;;29.70;99.90;;;;;;5074896;28;20064;-61
2022/03/03 07:04:15;;;;;;;31.77;20.73;;;29.70;99.90;;;;;;5075499;28;20349;-60
2022/03/03 07:06:43;;;;;;;34.50;19.35;;;29.80;99.90;;;;;;5070649;28;20032;-60
2022/03/03 07:09:11;;;;;;;28.73;18.38;;;29.80;99.90;;;;;;5068230;28;20485;-60
2022/03/03 07:11:39;;;;;;;39.38;21.58;;;29.80;99.90;;;;;;5074954;28;20044;-60
2022/03/03 07:14:06;;;;;;;31.63;20.02;;;30.00;99.90;;;;;;5056597;28;20044;-59
2022/03/03 07:16:53;;;;;;;17.38;11.98;;;30.00;99.90;;;;;;5056495;28;20028;-60
2022/03/03 07:19:33;;;;;;;15.35;9.10;;;30.00;99.90;;;;;;5057733;28;20024;-61
2022/03/03 07:22:17;;;;;;;13.23;7.28;;;29.90;99.90;;;;;;5075556;28;20557;-61
2022/03/03 07:24:58;;;;;;;12.75;7.28;;;29.80;99.90;;;;;;5074508;28;20031;-61
2022/03/03 07:27:25;;;;;;;15.35;7.47;;;29.50;99.90;;;;;;5055963;28;20033;-61
2022/03/03 07:30:00;;;;;;;68.72;51.97;;;29.40;99.90;;;;;;5056242;28;20343;-60
2022/03/03 07:32:33;;;;;;;64.22;43.63;;;29.30;99.90;;;;;;5055179;28;20465;-61
2022/03/03 07:35:07;;;;;;;126.43;82.72;;;29.20;99.90;;;;;;5073676;28;20501;-60
2022/03/03 07:37:45;;;;;;;25.60;12.52;;;29.20;99.90;;;;;;5070096;28;20020;-61
2022/03/03 07:40:12;;;;;;;19.35;12.05;;;29.20;99.90;;;;;;5075743;28;20017;-61
2022/03/03 07:42:39;;;;;;;26.95;17.60;;;29.10;99.90;;;;;;5075398;28;20074;-61
2022/03/03 07:45:07;;;;;;;17.23;10.13;;;29.10;99.90;;;;;;5074978;28;20075;-61
2022/03/03 07:47:36;;;;;;;12.55;8.27;;;29.10;99.90;;;;;;5073781;28;20036;-62
2022/03/03 07:50:04;;;;;;;25.52;10.48;;;29.10;99.90;;;;;;5076552;28;20434;-62
2022/03/03 07:52:31;;;;;;;27.52;23.20;;;29.00;99.90;;;;;;5075747;28;20075;-61
2022/03/03 07:54:58;;;;;;;17.42;12.05;;;29.00;99.90;;;;;;5075587;28;20028;-62
2022/03/03 07:57:33;;;;;;;41.28;29.20;;;28.90;99.90;;;;;;5076796;28;20274;-60
2022/03/03 08:00:07;;;;;;;15.95;12.00;;;28.90;99.90;;;;;;5075884;28;20029;-59
2022/03/03 08:02:35;;;;;;;20.35;11.40;;;28.90;99.90;;;;;;5075990;28;20107;-60
2022/03/03 08:05:05;;;;;;;19.25;12.07;;;28.90;99.90;;;;;;5075232;28;20033;-60
2022/03/03 08:07:40;;;;;;;17.48;9.75;;;28.80;99.90;;;;;;5075570;28;20032;-61
2022/03/03 08:10:07;;;;;;;17.45;9.43;;;28.70;99.90;;;;;;5076271;28;20039;-61
2022/03/03 08:12:34;;;;;;;13.40;8.32;;;28.70;99.90;;;;;;5075772;28;20155;-61
2022/03/03 08:15:01;;;;;;;11.68;8.02;;;28.70;99.90;;;;;;5075883;28;20032;-61
2022/03/03 08:17:28;;;;;;;14.82;9.30;;;28.70;99.90;;;;;;5076121;28;20029;-56
2022/03/03 08:19:56;;;;;;;16.63;9.07;;;28.80;99.90;;;;;;5075508;28;20071;-61
2022/03/03 08:22:24;;;;;;;12.90;8.60;;;28.80;99.90;;;;;;5075133;28;20532;-61
2022/03/03 08:24:56;;;;;;;17.83;9.15;;;28.90;99.90;;;;;;5075213;28;20039;-62
2022/03/03 08:27:25;;;;;;;14.70;9.60;;;28.90;99.90;;;;;;5075598;28;20028;-61
2022/03/03 08:29:53;;;;;;;14.82;8.65;;;28.90;99.90;;;;;;5075118;28;20388;-60
2022/03/03 08:32:22;;;;;;;17.88;9.27;;;28.90;99.90;;;;;;5075501;28;20028;-61
2022/03/03 08:35:04;;;;;;;15.65;8.93;;;28.80;99.90;;;;;;5075043;28;20020;-61
2022/03/03 08:37:36;;;;;;;12.73;8.97;;;28.80;99.90;;;;;;5075055;28;20028;-61
2022/03/03 08:40:05;;;;;;;19.38;10.40;;;28.90;99.90;;;;;;5075584;28;20067;-60
2022/03/03 08:42:37;;;;;;;14.35;9.02;;;28.80;99.90;;;;;;5075549;28;20024;-60
2022/03/03 08:45:06;;;;;;;15.93;9.07;;;28.70;99.90;;;;;;5075313;28;20384;-60
2022/03/03 08:47:33;;;;;;;14.10;8.48;;;28.70;99.90;;;;;;5074890;28;20113;-60
2022/03/03 08:50:09;;;;;;;18.27;8.20;;;28.70;99.90;;;;;;5075018;28;20388;-59
2022/03/03 08:52:41;;;;;;;14.60;8.88;;;28.70;99.90;;;;;;5074960;28;20106;-61
2022/03/03 08:55:10;;;;;;;12.05;7.55;;;28.70;99.90;;;;;;5075262;28;20381;-60
2022/03/03 08:57:37;;;;;;;14.07;8.60;;;28.70;99.90;;;;;;5076321;28;20087;-57
2022/03/03 09:00:08;;;;;;;15.77;9.07;;;28.70;99.90;;;;;;5075202;28;20024;-59
2022/03/03 09:02:34;;;;;;;12.93;8.88;;;28.60;99.90;;;;;;5074958;28;20021;-60
2022/03/03 09:05:02;;;;;;;15.55;10.23;;;28.60;99.90;;;;;;5074726;28;20036;-60
2022/03/03 09:07:29;;;;;;;19.27;11.10;;;28.60;99.90;;;;;;5074778;28;20476;-61
2022/03/03 09:09:56;;;;;;;14.63;10.55;;;28.60;99.90;;;;;;5074359;28;20033;-59
2022/03/03 09:12:23;;;;;;;16.85;10.68;;;28.60;99.90;;;;;;5074303;28;20033;-60
2022/03/03 09:14:50;;;;;;;17.80;9.55;;;28.70;99.90;;;;;;5074534;28;20372;-60
2022/03/03 09:17:17;;;;;;;15.55;9.00;;;28.70;99.90;;;;;;5074091;28;20035;-61
2022/03/03 09:19:44;;;;;;;23.13;12.95;;;28.70;99.90;;;;;;5074757;28;20372;-61
2022/03/03 09:22:11;;;;;;;23.90;15.50;;;28.70;99.90;;;;;;5074418;28;20467;-60
2022/03/03 09:24:38;;;;;;;20.83;15.48;;;28.80;99.90;;;;;;5074435;28;20028;-61
2022/03/03 09:27:04;;;;;;;23.80;16.27;;;28.80;99.90;;;;;;5074364;28;20025;-61
2022/03/03 09:29:34;;;;;;;19.20;13.73;;;28.80;99.90;;;;;;5074203;28;20061;-61
2022/03/03 09:32:02;;;;;;;17.35;9.32;;;28.80;99.90;;;;;;5073894;28;20033;-56
2022/03/03 09:34:29;;;;;;;22.05;10.70;;;28.80;99.90;;;;;;5074301;28;20024;-60
2022/03/03 09:36:57;;;;;;;13.68;9.75;;;28.80;99.90;;;;;;5074787;28;20028;-61
2022/03/03 09:39:24;;;;;;;17.40;10.77;;;28.70;99.90;;;;;;5074135;28;20108;-60
2022/03/03 09:41:52;;;;;;;18.25;11.10;;;28.70;99.90;;;;;;5073671;28;20389;-60
2022/03/03 09:44:24;;;;;;;24.05;14.40;;;28.70;99.90;;;;;;5073379;28;20519;-59
2022/03/03 09:46:51;;;;;;;21.80;15.07;;;28.70;99.90;;;;;;5073647;28;20036;-61
2022/03/03 09:49:18;;;;;;;22.45;11.35;;;28.70;99.90;;;;;;5073726;28;20029;-61
2022/03/03 09:51:47;;;;;;;78.93;60.55;;;28.70;99.90;;;;;;5073109;28;20067;-61
2022/03/03 09:54:14;;;;;;;31.38;18.70;;;28.60;99.90;;;;;;5073354;28;20036;-60
2022/03/03 09:56:41;;;;;;;31.60;21.45;;;28.60;99.90;;;;;;5073530;28;20067;-60
2022/03/03 09:59:08;;;;;;;33.80;23.33;;;28.60;99.90;;;;;;5073126;28;20059;-61
2022/03/03 10:01:35;;;;;;;35.03;20.73;;;28.60;99.90;;;;;;5073052;28;20035;-61
2022/03/03 10:04:15;;;;;;;23.85;16.23;;;28.60;99.90;;;;;;5072962;28;20358;-60
2022/03/03 10:06:43;;;;;;;35.30;25.98;;;28.60;99.90;;;;;;5070472;28;20473;-60
2022/03/03 10:09:11;;;;;;;25.85;18.58;;;28.60;99.90;;;;;;5072970;28;20029;-61
2022/03/03 10:12:01;;;;;;;22.15;13.25;;;28.60;99.90;;;;;;5072829;28;20408;-61
2022/03/03 10:14:36;;;;;;;34.53;22.80;;;28.50;99.90;;;;;;5071051;28;20020;-61
2022/03/03 10:17:05;;;;;;;53.25;35.88;;;28.50;99.90;;;;;;5070606;28;20415;-60
2022/03/03 10:19:32;;;;;;;67.43;41.15;;;28.60;99.90;;;;;;5073007;28;20211;-61
2022/03/03 10:21:59;;;;;;;41.88;27.85;;;28.60;99.90;;;;;;5073246;28;20036;-61
2022/03/03 10:24:30;;;;;;;44.15;29.70;;;28.60;99.90;;;;;;5073894;28;20094;-60
2022/03/03 10:27:06;;;;;;;37.67;25.10;;;28.50;99.90;;;;;;5074272;28;20066;-60
2022/03/03 10:29:34;;;;;;;36.28;24.60;;;28.50;99.90;;;;;;5073794;28;20035;-60
2022/03/03 10:32:02;;;;;;;40.80;24.42;;;28.60;99.90;;;;;;5074235;28;20632;-61
2022/03/03 10:34:34;;;;;;;48.42;29.45;;;28.60;99.90;;;;;;5074145;28;20032;-61
2022/03/03 10:37:10;;;;;;;64.53;40.35;;;28.60;99.90;;;;;;5069892;28;20033;-60
2022/03/03 10:39:48;;;;;;;67.00;40.13;;;28.60;99.90;;;;;;5073856;28;20386;-60
2022/03/03 10:42:22;;;;;;;69.65;39.78;;;28.60;99.90;;;;;;5074104;28;20025;-60
2022/03/03 10:44:52;;;;;;;65.40;39.60;;;28.70;99.90;;;;;;5068557;28;20036;-58
2022/03/03 10:47:24;;;;;;;78.10;43.30;;;28.70;99.90;;;;;;5074038;28;20031;-59
2022/03/03 10:49:57;;;;;;;74.65;43.05;;;28.70;99.90;;;;;;5091973;23;20104;-60
2022/03/03 10:52:27;;;;;;;91.95;56.50;;;28.60;99.90;;;;;;5068839;28;20032;-60
2022/03/03 10:55:05;;;;;;;83.85;46.58;;;28.60;99.90;;;;;;5073577;28;20412;-60
2022/03/03 10:57:46;;;;;;;94.43;52.50;;;28.60;99.90;;;;;;5062034;28;20029;-58
2022/03/03 11:00:19;;;;;;;150.57;72.03;;;28.60;99.90;;;;;;5063167;28;20025;-61
2022/03/03 11:02:49;;;;;;;216.43;113.60;;;28.60;99.90;;;;;;5073394;28;20085;-60
2022/03/03 11:05:17;;;;;;;198.02;126.20;;;28.60;99.90;;;;;;5074382;28;20036;-60
2022/03/03 11:07:46;;;;;;;159.73;106.93;;;28.60;99.90;;;;;;5075827;28;20412;-60
2022/03/03 11:10:17;;;;;;;231.00;139.07;;;28.50;99.90;;;;;;5077654;28;20052;-60
2022/03/03 11:12:45;;;;;;;151.30;97.28;;;28.50;99.90;;;;;;5073155;28;20186;-59
2022/03/03 11:15:14;;;;;;;96.25;64.00;;;28.50;99.90;;;;;;5077571;28;20107;-59
2022/03/03 11:17:42;;;;;;;159.00;105.95;;;28.50;99.90;;;;;;5076831;28;20469;-60
2022/03/03 11:20:13;;;;;;;200.85;127.68;;;28.60;99.90;;;;;;5077024;28;20473;-60
2022/03/03 11:22:40;;;;;;;179.43;117.13;;;28.50;99.90;;;;;;5070485;28;20056;-58
2022/03/03 11:25:10;;;;;;;169.48;112.30;;;28.50;99.90;;;;;;5076541;28;20029;-60
2022/03/03 11:27:39;;;;;;;165.63;104.70;;;28.50;99.90;;;;;;5076894;28;20044;-59
2022/03/03 11:30:19;;;;;;;153.55;98.68;;;28.50;99.90;;;;;;5074575;28;20028;-60
2022/03/03 11:33:06;;;;;;;163.27;97.57;;;28.50;99.90;;;;;;5073087;28;20031;-59
2022/03/03 11:35:50;;;;;;;137.90;74.10;;;28.50;99.90;;;;;;5070921;28;20028;-60
2022/03/03 11:38:18;;;;;;;138.98;81.07;;;28.40;99.90;;;;;;5075962;28;20031;-61
2022/03/03 11:41:00;;;;;;;125.50;76.68;;;28.40;99.90;;;;;;5075986;28;20493;-60
2022/03/03 11:43:28;;;;;;;99.85;60.35;;;28.50;99.90;;;;;;5075719;28;20166;-59
2022/03/03 11:45:59;;;;;;;101.47;58.33;;;28.50;99.90;;;;;;5072706;28;20062;-59
2022/03/03 11:48:38;;;;;;;143.73;76.68;;;28.40;99.90;;;;;;5064696;28;20451;-59
2022/03/03 11:51:34;;;;;;;193.40;106.65;;;28.40;99.90;;;;;;5072815;28;20566;-59
2022/03/03 11:54:09;;;;;;;204.43;114.32;;;28.40;99.90;;;;;;5072168;28;20094;-60
2022/03/03 11:56:56;;;;;;;162.55;82.47;;;28.40;99.90;;;;;;5069563;28;20108;-60
2022/03/03 11:59:34;;;;;;;165.45;82.90;;;28.30;99.90;;;;;;5073967;28;20536;-60
2022/03/03 12:02:01;;;;;;;140.15;73.57;;;28.40;99.90;;;;;;5074069;28;20020;-60
2022/03/03 12:04:29;;;;;;;127.65;70.90;;;28.30;99.90;;;;;;5074758;28;20025;-62
2022/03/03 12:06:55;;;;;;;128.73;70.57;;;28.30;99.90;;;;;;5074965;28;20028;-61
2022/03/03 12:09:30;;;;;;;119.15;70.13;;;28.20;99.90;;;;;;5070058;28;20032;-60
2022/03/03 12:12:16;;;;;;;112.03;66.35;;;28.20;99.90;;;;;;5073644;28;20031;-61
2022/03/03 12:14:52;;;;;;;146.00;90.32;;;28.20;99.90;;;;;;5074649;28;20030;-60
2022/03/03 12:17:42;;;;;;;121.55;73.38;;;28.20;99.90;;;;;;5075049;28;20017;-60
2022/03/03 12:20:30;;;;;;;115.90;72.82;;;28.20;99.90;;;;;;5074491;28;20396;-61
2022/03/03 12:23:10;;;;;;;102.03;58.42;;;28.30;99.90;;;;;;5068495;28;20029;-59
2022/03/03 12:25:54;;;;;;;94.68;57.90;;;28.20;99.90;;;;;;5071031;28;20025;-64
2022/03/03 12:28:22;;;;;;;113.03;69.63;;;28.20;99.90;;;;;;5065015;28;20016;-60
2022/03/03 12:30:51;;;;;;;73.95;47.17;;;28.30;99.90;;;;;;5074482;28;20028;-61
2022/03/03 12:33:30;;;;;;;69.18;44.03;;;28.30;99.90;;;;;;5074387;28;20504;-61
2022/03/03 12:36:02;;;;;;;77.68;45.80;;;28.20;99.90;;;;;;5073034;28;20119;-61